Time;durP1;ratioP1;P1;durP2;ratioP2;P2;SDS_P1;SDS_P2;PMS_P1;PMS_P2;Temp;Humidity;BMP_temperature;BMP_pressure;BME280_temperature;BME280_humidity;BME280_pressure;Samples;Min_cycle;Max_cycle;Signal;HPM_P1;HPM_P2
2021/08/28 00:01:11;;;;;;;0.80;0.60;;;;;;;15.09;75.45;98822.25;5094514;27;41147;-78
2021/08/28 00:03:40;;;;;;;0.53;0.43;;;;;;;15.15;75.63;98834.25;5084252;27;41742;-78
2021/08/28 00:06:07;;;;;;;1.00;0.70;;;;;;;15.16;75.73;98828.78;5073748;27;41716;-79
2021/08/28 00:08:35;;;;;;;0.60;0.40;;;;;;;15.18;75.72;98837.53;5078518;27;39293;-78
2021/08/28 00:11:02;;;;;;;0.30;0.30;;;;;;;15.08;75.98;98812.56;5075395;28;41142;-78
2021/08/28 00:13:30;;;;;;;0.67;0.67;;;;;;;15.21;75.86;98837.25;5078214;27;42731;-78
2021/08/28 00:15:57;;;;;;;0.43;0.43;;;;;;;15.24;75.40;98831.66;5100090;27;41485;-78
2021/08/28 00:18:25;;;;;;;0.83;0.33;;;;;;;15.27;75.65;98834.09;5078980;27;39071;-78
2021/08/28 00:20:54;;;;;;;0.50;0.50;;;;;;;15.29;75.86;98839.31;5099643;27;42666;-78
2021/08/28 00:23:21;;;;;;;0.70;0.70;;;;;;;15.30;75.80;98841.84;5089089;27;41932;-77
2021/08/28 00:25:49;;;;;;;0.50;0.50;;;;;;;15.32;76.10;98842.56;5115008;27;43283;-77
2021/08/28 00:28:17;;;;;;;0.40;0.40;;;;;;;15.32;76.06;98831.91;5115819;27;40614;-77
2021/08/28 00:30:56;;;;;;;0.50;0.50;;;;;;;15.32;76.33;98839.06;5082901;27;41533;-78
2021/08/28 00:33:24;;;;;;;0.57;0.40;;;;;;;15.26;76.29;98824.38;5096773;27;41800;-78
2021/08/28 00:35:52;;;;;;;0.50;0.50;;;;;;;15.29;76.60;98828.63;5078828;27;42185;-78
2021/08/28 00:38:21;;;;;;;0.40;0.40;;;;;;;15.32;76.82;98833.72;5114251;27;40147;-78
2021/08/28 00:40:48;;;;;;;0.53;0.50;;;;;;;15.33;76.59;98830.91;5097545;27;42381;-78
2021/08/28 00:43:16;;;;;;;0.50;0.50;;;;;;;15.33;76.62;98824.75;5079153;27;42055;-78
2021/08/28 00:45:44;;;;;;;0.53;0.53;;;;;;;15.34;76.44;98829.09;5095965;27;41470;-77
2021/08/28 00:48:13;;;;;;;0.53;0.50;;;;;;;15.33;76.40;98825.56;5094631;27;40738;-79
2021/08/28 00:50:43;;;;;;;0.70;0.60;;;;;;;15.34;76.08;98826.41;5096699;28;41979;-79
2021/08/28 00:53:12;;;;;;;0.60;0.60;;;;;;;15.28;76.21;98811.78;5078347;27;41689;-78
2021/08/28 00:55:44;;;;;;;0.50;0.50;;;;;;;15.36;76.17;98825.31;5092716;27;41528;-77
2021/08/28 00:58:13;;;;;;;0.67;0.67;;;;;;;15.37;76.26;98826.16;5095246;27;40170;-78
2021/08/28 01:00:43;;;;;;;0.77;0.63;;;;;;;15.38;75.83;98822.53;5082534;27;40963;-78
2021/08/28 01:03:13;;;;;;;0.53;0.53;;;;;;;15.38;76.00;98823.38;5110980;27;43674;-78
2021/08/28 01:05:50;;;;;;;2.00;0.77;;;;;;;15.39;75.67;98821.56;5091838;27;41870;-78
2021/08/28 01:08:25;;;;;;;0.33;0.33;;;;;;;15.36;75.65;98814.66;5095485;27;40007;-78
2021/08/28 01:11:13;;;;;;;0.50;0.50;;;;;;;15.38;75.61;98823.38;5096839;27;40729;-78
2021/08/28 01:13:55;;;;;;;0.60;0.53;;;;;;;15.37;76.03;98832.34;5110953;27;43053;-78
2021/08/28 01:16:23;;;;;;;0.50;0.50;;;;;;;15.32;75.96;98831.91;5093211;28;41958;-78
2021/08/28 01:18:53;;;;;;;0.57;0.57;;;;;;;15.32;75.75;98828.38;5074745;27;40164;-78
2021/08/28 01:21:28;;;;;;;0.50;0.50;;;;;;;15.31;76.07;98830.19;5095226;28;42460;-78
2021/08/28 01:24:15;;;;;;;0.87;0.87;;;;;;;15.30;75.78;98827.66;5105394;27;42615;-79
2021/08/28 01:27:25;;;;;;;0.47;0.47;;;;;;;15.29;75.94;98831.28;5007707;28;41847;-78
2021/08/28 01:29:54;;;;;;;0.50;0.50;;;;;;;15.26;75.71;98829.72;5075956;27;40162;-78
2021/08/28 01:32:23;;;;;;;0.50;0.50;;;;;;;15.23;76.00;98824.63;5113667;27;42622;-78
2021/08/28 01:34:51;;;;;;;0.50;0.50;;;;;;;15.24;76.01;98825.47;5093914;28;43011;-77
2021/08/28 01:37:20;;;;;;;0.57;0.57;;;;;;;15.21;76.08;98826.56;5077962;27;41253;-78
2021/08/28 01:39:59;;;;;;;0.50;0.50;;;;;;;15.20;76.03;98835.56;5096501;27;40864;-78
2021/08/28 01:42:33;;;;;;;0.40;0.40;;;;;;;15.18;76.42;98832.19;5072833;27;40809;-79
2021/08/28 01:45:04;;;;;;;0.57;0.57;;;;;;;15.09;76.44;98822.25;5079191;27;41907;-78
2021/08/28 01:47:33;;;;;;;0.83;0.67;;;;;;;15.15;76.26;98827.09;5089338;27;41947;-78
2021/08/28 01:50:03;;;;;;;0.50;0.50;;;;;;;15.13;76.23;98829.03;5097201;27;40017;-79
2021/08/28 01:52:31;;;;;;;0.40;0.40;;;;;;;15.14;76.24;98830.72;5094656;27;41994;-78
2021/08/28 01:54:59;;;;;;;0.60;0.60;;;;;;;15.11;75.98;98825.63;5077686;27;43364;-78
2021/08/28 01:57:36;;;;;;;0.40;0.40;;;;;;;15.10;76.04;98823.94;5074160;27;42387;-78
2021/08/28 02:00:31;;;;;;;0.50;0.50;;;;;;;15.11;76.30;98836.31;5090821;27;40109;-78
2021/08/28 02:02:59;;;;;;;0.70;0.60;;;;;;;15.08;76.05;98833.91;5075742;27;41885;-78
2021/08/28 02:05:27;;;;;;;0.50;0.50;;;;;;;15.05;76.24;98842.16;5098465;27;42712;-78
2021/08/28 02:08:10;;;;;;;0.33;0.33;;;;;;;15.05;76.21;98837.66;5072778;27;42294;-78
2021/08/28 02:10:42;;;;;;;0.40;0.40;;;;;;;15.07;75.92;98835.72;5080147;27;38809;-78
2021/08/28 02:13:18;;;;;;;0.40;0.40;;;;;;;15.07;76.05;98835.72;5088944;27;40936;-78
2021/08/28 02:15:51;;;;;;;0.30;0.30;;;;;;;15.06;76.04;98838.50;5094074;27;42795;-77
2021/08/28 02:18:28;;;;;;;0.40;0.40;;;;;;;15.06;75.63;98842.03;5094203;28;42798;-78
2021/08/28 02:21:26;;;;;;;0.53;0.53;;;;;;;14.98;75.73;98827.59;5091561;28;39094;-78
2021/08/28 02:24:02;;;;;;;1.60;0.50;;;;;;;15.04;76.11;98845.78;5078615;27;42064;-78
2021/08/28 02:26:37;;;;;;;0.60;0.60;;;;;;;15.04;75.68;98843.13;5074763;28;41774;-78
2021/08/28 02:29:09;;;;;;;0.70;0.60;;;;;;;15.05;75.80;98842.16;5094760;28;43218;-78
2021/08/28 02:31:43;;;;;;;0.40;0.40;;;;;;;15.04;75.59;98846.63;5093563;27;40016;-77
2021/08/28 02:34:14;;;;;;;0.40;0.40;;;;;;;15.05;76.09;98852.81;5082024;27;40784;-77
2021/08/28 02:36:45;;;;;;;0.53;0.53;;;;;;;15.06;75.74;98849.19;5075987;28;43250;-78
2021/08/28 02:39:17;;;;;;;1.47;0.50;;;;;;;15.07;75.94;98853.53;5101058;27;42998;-78
2021/08/28 02:41:47;;;;;;;0.30;0.30;;;;;;;15.08;75.88;98841.91;5076988;28;40218;-78
2021/08/28 02:44:17;;;;;;;0.40;0.40;;;;;;;15.08;75.43;98847.25;5099978;27;41944;-78
2021/08/28 02:46:46;;;;;;;0.30;0.30;;;;;;;15.09;75.79;98846.25;5094398;28;42936;-78
2021/08/28 02:49:19;;;;;;;0.40;0.40;;;;;;;15.02;75.63;98837.06;5099986;27;41991;-77
2021/08/28 02:51:48;;;;;;;0.60;0.60;;;;;;;15.07;75.44;98845.56;5094112;28;40325;-78
2021/08/28 02:54:21;;;;;;;0.50;0.40;;;;;;;15.10;75.57;98842.59;5083257;27;40574;-78
2021/08/28 02:56:51;;;;;;;0.73;0.50;;;;;;;15.11;75.52;98852.31;5114632;27;43266;-78
2021/08/28 02:59:20;;;;;;;0.50;0.50;;;;;;;15.12;75.58;98854.00;5080048;27;42081;-79
2021/08/28 03:01:50;;;;;;;0.40;0.40;;;;;;;15.12;75.47;98856.66;5080752;28;40570;-78
2021/08/28 03:04:21;;;;;;;0.77;0.50;;;;;;;15.13;75.37;98861.03;5101298;27;41828;-78
2021/08/28 03:06:51;;;;;;;0.40;0.40;;;;;;;15.14;74.95;98857.41;5107458;27;43592;-78
2021/08/28 03:09:20;;;;;;;0.60;0.60;;;;;;;15.14;75.17;98857.41;5080458;27;40968;-78
2021/08/28 03:11:49;;;;;;;0.37;0.37;;;;;;;15.13;75.21;98845.03;5097000;27;40598;-78
2021/08/28 03:14:17;;;;;;;0.40;0.40;;;;;;;15.14;75.45;98848.53;5097551;27;42279;-79
2021/08/28 03:16:52;;;;;;;0.40;0.40;;;;;;;15.13;75.18;98845.03;5076396;28;42290;-78
2021/08/28 03:19:40;;;;;;;0.40;0.40;;;;;;;15.12;75.17;98839.81;5080599;27;41249;-78
2021/08/28 03:22:10;;;;;;;0.40;0.40;;;;;;;15.12;74.92;98843.34;5078428;27;40126;-78
2021/08/28 03:24:40;;;;;;;0.50;0.30;;;;;;;15.10;75.18;98845.28;5097949;27;41778;-78
2021/08/28 03:27:14;;;;;;;0.50;0.50;;;;;;;15.09;74.94;98838.25;5095451;27;42792;-78
2021/08/28 03:29:44;;;;;;;0.70;0.60;;;;;;;14.99;74.97;98818.63;5099207;27;42851;-78
2021/08/28 03:32:15;;;;;;;0.60;0.60;;;;;;;15.04;74.91;98835.13;5100365;27;38849;-79
2021/08/28 03:34:44;;;;;;;0.30;0.30;;;;;;;15.03;75.38;98838.75;5081513;27;41689;-78
2021/08/28 03:37:13;;;;;;;0.60;0.60;;;;;;;14.99;75.19;98838.16;5071981;28;41819;-78
2021/08/28 03:39:41;;;;;;;0.67;0.67;;;;;;;14.97;75.51;98839.22;5098005;27;42356;-78
2021/08/28 03:42:09;;;;;;;0.60;0.60;;;;;;;14.93;75.35;98837.81;5078771;27;39435;-77
2021/08/28 03:44:41;;;;;;;0.50;0.50;;;;;;;14.92;75.31;98841.44;5097212;27;42782;-77
2021/08/28 03:47:16;;;;;;;0.30;0.30;;;;;;;14.92;75.20;98846.78;5117059;27;42454;-78
2021/08/28 03:49:45;;;;;;;0.40;0.40;;;;;;;14.90;75.53;98843.38;5092971;28;42455;-78
2021/08/28 03:52:13;;;;;;;0.37;0.37;;;;;;;14.89;75.32;98847.00;5092559;27;40587;-79
2021/08/28 03:54:41;;;;;;;0.47;0.47;;;;;;;14.86;75.28;98837.44;5081120;27;40812;-78
2021/08/28 03:57:09;;;;;;;0.37;0.37;;;;;;;14.83;75.62;98847.53;5117745;27;43357;-78
2021/08/28 03:59:36;;;;;;;0.30;0.30;;;;;;;14.78;75.15;98844.38;5099713;27;41160;-78
2021/08/28 04:02:04;;;;;;;0.60;0.60;;;;;;;14.70;75.37;98843.16;5092371;27;39111;-80
2021/08/28 04:04:48;;;;;;;0.30;0.30;;;;;;;14.63;75.35;98846.41;5082156;27;41606;-79
2021/08/28 04:07:16;;;;;;;0.30;0.30;;;;;;;14.56;75.54;98850.56;5092198;27;43898;-78
2021/08/28 04:09:46;;;;;;;0.60;0.50;;;;;;;14.49;75.59;98852.84;5081546;27;42314;-78
2021/08/28 04:12:13;;;;;;;0.50;0.50;;;;;;;14.37;75.73;98840.44;5089932;27;39839;-78
2021/08/28 04:14:50;;;;;;;0.30;0.30;;;;;;;14.36;75.44;98854.72;5097870;27;42908;-78
2021/08/28 04:17:18;;;;;;;0.30;0.30;;;;;;;14.29;75.90;98862.38;5071849;28;41829;-78
2021/08/28 04:19:45;;;;;;;0.63;0.40;;;;;;;14.24;75.62;98850.34;5097133;27;42468;-78
2021/08/28 04:22:35;;;;;;;0.50;0.50;;;;;;;14.18;75.67;98849.03;5088933;27;38706;-77
2021/08/28 04:25:09;;;;;;;1.90;0.50;;;;;;;14.17;75.85;98849.16;5088764;27;42147;-78
2021/08/28 04:27:49;;;;;;;0.20;0.20;;;;;;;14.17;75.92;98849.16;5078625;28;43069;-78
2021/08/28 04:30:25;;;;;;;0.60;0.60;;;;;;;14.19;75.53;98853.41;5069859;28;41718;-78
2021/08/28 04:32:53;;;;;;;0.30;0.30;;;;;;;14.20;75.72;98855.09;5083974;28;40604;-78
2021/08/28 04:35:21;;;;;;;0.33;0.30;;;;;;;14.21;75.97;98855.94;5069632;28;40491;-79
2021/08/28 04:37:50;;;;;;;0.57;0.50;;;;;;;14.24;75.83;98856.53;5086670;28;42453;-78
2021/08/28 04:40:18;;;;;;;0.30;0.30;;;;;;;14.23;76.10;98856.66;5071151;28;42637;-78
2021/08/28 04:42:46;;;;;;;0.30;0.30;;;;;;;14.31;75.97;98862.25;5090355;27;39971;-78
2021/08/28 04:45:19;;;;;;;0.40;0.40;;;;;;;14.34;75.69;98860.19;5099656;27;41095;-78
2021/08/28 04:48:10;;;;;;;0.40;0.40;;;;;;;14.37;75.48;98861.75;5121508;27;42973;-78
2021/08/28 04:50:39;;;;;;;0.70;0.70;;;;;;;14.38;75.40;98879.44;5096520;27;42091;-79
2021/08/28 04:53:08;;;;;;;0.30;0.30;;;;;;;14.39;75.62;98875.81;5093658;27;39089;-78
2021/08/28 04:55:36;;;;;;;0.50;0.50;;;;;;;14.41;75.36;98889.91;5090273;27;40995;-78
2021/08/28 04:58:04;;;;;;;0.40;0.40;;;;;;;14.46;75.56;98878.91;5092188;27;42122;-78
2021/08/28 05:00:33;;;;;;;0.40;0.40;;;;;;;14.51;75.59;98880.22;5116847;27;42015;-78
2021/08/28 05:03:19;;;;;;;0.43;0.43;;;;;;;14.57;75.38;98885.09;5112729;27;39226;-78
2021/08/28 05:05:47;;;;;;;0.40;0.40;;;;;;;14.62;75.62;98888.22;5094863;27;40771;-79
2021/08/28 05:08:16;;;;;;;0.50;0.50;;;;;;;14.69;75.10;98892.13;5091924;27;42160;-78
2021/08/28 05:10:44;;;;;;;0.40;0.40;;;;;;;14.66;75.08;98878.19;5116781;27;42879;-80
2021/08/28 05:13:12;;;;;;;0.83;0.63;;;;;;;14.83;75.20;98898.19;5109413;27;40084;-78
2021/08/28 05:15:44;;;;;;;0.53;0.53;;;;;;;14.92;75.00;98905.44;5115679;27;42455;-78
2021/08/28 05:18:11;;;;;;;0.50;0.50;;;;;;;14.99;75.13;98895.97;5126820;27;43023;-78
2021/08/28 05:20:40;;;;;;;0.50;0.50;;;;;;;15.08;74.93;98895.25;5094849;27;42124;-78
2021/08/28 05:23:38;;;;;;;0.33;0.33;;;;;;;15.21;74.99;98903.94;5094093;27;38947;-79
2021/08/28 05:26:28;;;;;;;0.67;0.67;;;;;;;15.33;74.73;98905.63;5093853;27;41886;-78
2021/08/28 05:28:56;;;;;;;1.03;0.70;;;;;;;15.45;74.29;98904.63;5115783;27;42737;-78
2021/08/28 05:31:24;;;;;;;0.67;0.67;;;;;;;15.58;74.08;98901.00;5111725;27;42395;-78
2021/08/28 05:33:51;;;;;;;0.30;0.30;;;;;;;15.71;73.80;98905.19;5098688;27;38983;-78
2021/08/28 05:36:27;;;;;;;0.53;0.53;;;;;;;15.86;73.74;98908.41;5113627;27;42722;-78
2021/08/28 05:39:22;;;;;;;0.60;0.60;;;;;;;16.04;73.23;98906.88;5097248;27;42952;-78
2021/08/28 05:41:50;;;;;;;0.57;0.57;;;;;;;16.20;73.34;98910.91;5113053;27;42325;-78
2021/08/28 05:44:17;;;;;;;0.50;0.50;;;;;;;16.37;72.74;98913.00;5095017;27;39885;-77
2021/08/28 05:46:45;;;;;;;0.40;0.40;;;;;;;16.52;72.28;98914.38;5090627;27;40984;-78
2021/08/28 05:49:20;;;;;;;0.60;0.60;;;;;;;16.66;72.15;98918.56;5090715;27;41566;-79
2021/08/28 05:52:01;;;;;;;0.60;0.43;;;;;;;16.76;71.72;98914.97;5095794;27;41467;-77
2021/08/28 05:54:31;;;;;;;0.73;0.60;;;;;;;16.85;71.32;98914.16;5098368;27;38718;-78
2021/08/28 05:56:59;;;;;;;0.30;0.30;;;;;;;16.86;70.70;98904.28;5094950;27;40953;-78
2021/08/28 05:59:28;;;;;;;0.60;0.60;;;;;;;17.01;70.26;98918.16;5098455;27;43267;-78
2021/08/28 06:01:58;;;;;;;0.73;0.70;;;;;;;17.03;70.30;98913.53;5095439;27;42561;-78
2021/08/28 06:04:27;;;;;;;0.53;0.53;;;;;;;17.08;70.48;98913.94;5116285;27;40922;-78
2021/08/28 06:07:15;;;;;;;0.50;0.50;;;;;;;17.07;70.07;98898.88;5125053;27;41657;-77
2021/08/28 06:09:53;;;;;;;0.80;0.70;;;;;;;17.16;69.93;98911.47;5125509;27;43374;-77
2021/08/28 06:12:39;;;;;;;0.60;0.60;;;;;;;17.20;69.71;98908.34;5129356;27;41816;-78
2021/08/28 06:15:15;;;;;;;0.70;0.70;;;;;;;17.24;69.67;98914.28;5118889;27;39312;-78
2021/08/28 06:17:50;;;;;;;0.43;0.43;;;;;;;17.21;68.99;98899.34;5115773;27;41703;-78
2021/08/28 06:20:18;;;;;;;0.50;0.50;;;;;;;17.38;69.00;98916.59;5123215;27;42424;-78
2021/08/28 06:22:45;;;;;;;0.43;0.43;;;;;;;17.50;68.89;98923.53;5101867;27;41519;-79
2021/08/28 06:25:15;;;;;;;0.50;0.50;;;;;;;17.58;68.92;98912.97;5119333;27;39802;-79
2021/08/28 06:27:43;;;;;;;0.77;0.73;;;;;;;17.65;68.56;98915.13;5114377;27;42692;-79
2021/08/28 06:30:16;;;;;;;0.40;0.40;;;;;;;17.76;68.46;98912.31;5115507;27;42627;-78
2021/08/28 06:32:43;;;;;;;0.83;0.83;;;;;;;17.87;67.91;98913.03;5093323;27;41375;-78
2021/08/28 06:35:13;;;;;;;0.47;0.47;;;;;;;18.06;67.46;98922.03;5114487;27;39827;-78
2021/08/28 06:37:45;;;;;;;0.40;0.40;;;;;;;18.22;67.11;98925.84;5097957;27;41025;-78
2021/08/28 06:40:32;;;;;;;0.57;0.57;;;;;;;18.34;66.50;98923.03;5112016;27;42100;-79
2021/08/28 06:43:18;;;;;;;0.50;0.50;;;;;;;18.39;66.04;98924.28;5113659;27;42159;-78
2021/08/28 06:46:04;;;;;;;0.40;0.40;;;;;;;18.42;65.93;98920.50;5126524;27;40849;-79
2021/08/28 06:48:58;;;;;;;0.50;0.50;;;;;;;18.41;65.42;98932.19;5097976;27;40972;-79
2021/08/28 06:51:53;;;;;;;0.40;0.40;;;;;;;18.36;65.27;98924.56;5074047;27;42545;-78
2021/08/28 06:54:39;;;;;;;1.03;0.50;;;;;;;18.35;65.96;98930.06;5127570;27;42221;-79
2021/08/28 06:57:34;;;;;;;0.30;0.30;;;;;;;18.32;65.98;98920.47;5073936;27;38927;-79
2021/08/28 07:00:16;;;;;;;0.70;0.70;;;;;;;18.30;66.01;98931.34;5118998;27;41704;-79
2021/08/28 07:03:04;;;;;;;1.10;0.80;;;;;;;18.27;65.32;98930.81;5083063;27;41713;-79
2021/08/28 07:05:31;;;;;;;0.57;0.57;;;;;;;18.27;65.40;98926.28;5096092;28;44894;-79
2021/08/28 07:08:08;;;;;;;0.40;0.40;;;;;;;18.26;65.01;98924.59;5089757;28;40156;-79
2021/08/28 07:10:36;;;;;;;0.50;0.50;;;;;;;18.24;65.39;98909.63;5083757;27;40795;-78
2021/08/28 07:13:05;;;;;;;0.67;0.67;;;;;;;18.31;65.54;98913.41;5114392;27;42819;-78
2021/08/28 07:15:34;;;;;;;0.53;0.40;;;;;;;18.40;65.18;98922.47;5099108;27;41315;-79
2021/08/28 07:18:09;;;;;;;0.33;0.33;;;;;;;18.45;65.40;98928.22;5110259;27;40242;-79
2021/08/28 07:20:37;;;;;;;0.40;0.40;;;;;;;18.46;65.31;98924.56;5112083;27;42025;-79
2021/08/28 07:23:05;;;;;;;0.50;0.50;;;;;;;18.48;65.31;98920.75;5089709;28;42465;-79
2021/08/28 07:25:56;;;;;;;0.40;0.40;;;;;;;18.51;64.87;98922.31;5105239;27;41923;-79
2021/08/28 07:28:25;;;;;;;0.60;0.60;;;;;;;18.52;65.08;98913.25;5100751;27;39389;-79
2021/08/28 07:31:07;;;;;;;0.40;0.40;;;;;;;18.57;64.60;98917.19;5125765;27;41702;-78
2021/08/28 07:33:41;;;;;;;0.40;0.40;;;;;;;18.62;64.52;98920.31;5102491;27;43158;-79
2021/08/28 07:36:09;;;;;;;0.40;0.40;;;;;;;18.63;63.71;98915.81;5100523;27;41219;-78
2021/08/28 07:38:41;;;;;;;0.50;0.50;;;;;;;18.63;63.95;98919.34;5118590;27;41042;-79
2021/08/28 07:41:08;;;;;;;0.33;0.33;;;;;;;18.73;63.65;98916.63;5094768;27;42027;-78
2021/08/28 07:43:38;;;;;;;0.60;0.50;;;;;;;18.77;63.69;98928.75;5091611;27;41831;-79
2021/08/28 07:46:06;;;;;;;0.67;0.67;;;;;;;18.77;63.44;98920.72;5093608;27;42266;-79
2021/08/28 07:48:43;;;;;;;0.30;0.30;;;;;;;18.76;63.05;98924.38;5110471;27;40689;-80
2021/08/28 07:51:18;;;;;;;0.40;0.40;;;;;;;18.73;62.81;98921.97;5094657;27;41708;-79
2021/08/28 07:53:45;;;;;;;0.57;0.57;;;;;;;18.71;63.06;98923.13;5093286;27;41805;-79
2021/08/28 07:56:14;;;;;;;0.50;0.50;;;;;;;18.76;63.03;98936.94;5090348;27;42356;-81
2021/08/28 07:58:43;;;;;;;0.70;0.70;;;;;;;18.74;62.76;98929.06;5095365;27;39495;-79
2021/08/28 08:01:13;;;;;;;0.50;0.50;;;;;;;18.75;62.93;98925.38;5100692;27;41345;-79
2021/08/28 08:03:46;;;;;;;0.40;0.40;;;;;;;18.71;62.71;98928.47;5095717;27;41915;-79
2021/08/28 08:06:20;;;;;;;0.80;0.80;;;;;;;18.71;63.19;98932.00;5127560;27;42758;-78
2021/08/28 08:09:06;;;;;;;0.70;0.50;;;;;;;18.75;62.99;98938.78;5128066;27;40203;-78
2021/08/28 08:11:52;;;;;;;0.60;0.60;;;;;;;18.80;62.72;98936.50;5123913;27;40864;-79
2021/08/28 08:14:31;;;;;;;0.60;0.60;;;;;;;18.86;62.88;98941.28;5125660;27;42848;-80
2021/08/28 08:17:42;;;;;;;0.53;0.53;;;;;;;18.99;62.34;98947.19;5097542;27;43162;-79
2021/08/28 08:20:20;;;;;;;0.80;0.80;;;;;;;19.09;61.27;98943.59;5133960;27;41831;-79
2021/08/28 08:23:07;;;;;;;0.53;0.53;;;;;;;19.35;61.21;98952.69;5132472;27;40998;-80
2021/08/28 08:25:52;;;;;;;0.60;0.60;;;;;;;19.58;61.20;98959.38;5122039;27;42703;-79
2021/08/28 08:28:54;;;;;;;0.50;0.50;;;;;;;19.85;59.86;98952.28;5099204;27;42274;-78
2021/08/28 08:31:40;;;;;;;0.50;0.50;;;;;;;20.28;58.90;98967.63;5113476;27;39988;-79
2021/08/28 08:34:34;;;;;;;0.60;0.60;;;;;;;21.07;57.51;98949.59;5119000;27;42097;-80
2021/08/28 08:37:05;;;;;;;0.97;0.53;;;;;;;21.95;54.16;98965.44;5103201;27;42078;-79
2021/08/28 08:39:33;;;;;;;0.60;0.60;;;;;;;22.18;53.01;98966.53;5096057;27;41497;-80
2021/08/28 08:42:04;;;;;;;0.40;0.40;;;;;;;22.36;52.77;98987.97;5113995;27;39573;-79
2021/08/28 08:44:36;;;;;;;0.53;0.53;;;;;;;22.35;52.36;98987.13;5098888;27;44042;-79
2021/08/28 08:47:07;;;;;;;0.50;0.50;;;;;;;22.49;52.06;98993.72;5095047;27;41850;-79
2021/08/28 08:49:37;;;;;;;0.30;0.30;;;;;;;22.68;52.09;98987.13;5116957;27;41699;-79
2021/08/28 08:52:07;;;;;;;0.50;0.50;;;;;;;22.97;51.48;98955.06;5114801;27;40210;-79
2021/08/28 08:54:51;;;;;;;0.40;0.40;;;;;;;23.60;50.08;98989.34;5094367;27;41688;-78
2021/08/28 08:57:19;;;;;;;0.60;0.60;;;;;;;23.89;49.85;98992.25;5096239;27;42544;-79
2021/08/28 08:59:49;;;;;;;0.40;0.40;;;;;;;24.16;47.73;98990.06;5099336;27;41623;-79
2021/08/28 09:02:21;;;;;;;0.40;0.40;;;;;;;24.62;47.39;98996.34;5096479;27;38793;-78
2021/08/28 09:05:09;;;;;;;0.47;0.47;;;;;;;25.29;47.65;98991.84;5127271;27;41730;-79
2021/08/28 09:07:38;;;;;;;0.40;0.40;;;;;;;25.71;45.94;98988.50;5114544;27;43074;-79
2021/08/28 09:10:06;;;;;;;0.40;0.40;;;;;;;25.78;44.93;98996.72;5098565;27;41802;-79
2021/08/28 09:12:39;;;;;;;0.30;0.30;;;;;;;25.48;44.52;98997.72;5110366;27;39783;-79
2021/08/28 09:15:12;;;;;;;0.43;0.43;;;;;;;25.03;45.66;98997.69;5091411;27;42451;-80
2021/08/28 09:17:44;;;;;;;0.23;0.20;;;;;;;24.57;46.56;98975.25;5125727;27;43181;-80
2021/08/28 09:20:22;;;;;;;0.63;0.63;;;;;;;24.30;47.39;98973.09;5121249;27;43239;-79
2021/08/28 09:22:51;;;;;;;0.50;0.50;;;;;;;24.34;46.47;98975.25;5088826;27;40504;-83
2021/08/28 09:25:24;;;;;;;0.40;0.40;;;;;;;24.76;46.22;98981.16;5105913;27;41378;-83
2021/08/28 09:27:55;;;;;;;0.60;0.60;;;;;;;25.00;45.10;98978.25;5089838;27;43343;-82
2021/08/28 09:30:27;;;;;;;0.50;0.50;;;;;;;25.82;41.62;98967.34;5089629;27;41984;-84
2021/08/28 09:33:06;;;;;;;0.30;0.30;;;;;;;27.04;39.37;99026.91;5105252;27;39895;-82
2021/08/28 09:35:40;;;;;;;0.43;0.43;;;;;;;26.58;41.13;98974.03;5094039;27;40673;-83
2021/08/28 09:38:11;;;;;;;0.30;0.30;;;;;;;26.15;42.36;98992.13;5095987;27;42714;-82
2021/08/28 09:40:40;;;;;;;0.53;0.53;;;;;;;25.49;43.33;98994.81;5109394;27;42720;-82
2021/08/28 09:43:12;;;;;;;0.40;0.40;;;;;;;24.63;42.83;98960.94;5094342;27;38863;-82
2021/08/28 09:45:46;;;;;;;0.37;0.37;;;;;;;24.31;44.15;98966.66;5100211;27;41622;-82
2021/08/28 09:49:03;;;;;;;0.30;0.30;;;;;;;24.15;44.44;98980.25;5093101;27;41968;-82
2021/08/28 09:51:47;;;;;;;0.30;0.30;;;;;;;23.78;44.50;98911.50;5092966;27;42908;-82
2021/08/28 09:54:30;;;;;;;0.40;0.40;;;;;;;24.41;43.13;98934.75;5084182;27;39238;-82
2021/08/28 09:57:44;;;;;;;0.80;0.40;;;;;;;25.19;42.67;98985.84;5121602;27;43322;-82
2021/08/28 10:04:27;;;;;;;0.40;0.40;;;;;;;25.77;40.50;99008.59;5107237;27;43348;-82
2021/08/28 10:07:06;;;;;;;0.33;0.33;;;;;;;25.54;41.51;98953.59;5078798;28;39114;-82
2021/08/28 10:10:06;;;;;;;0.30;0.30;;;;;;;25.75;41.28;98927.38;5074051;28;40690;-82
2021/08/28 10:12:46;;;;;;;0.30;0.30;;;;;;;25.84;40.93;98993.22;5083683;27;42770;-81
2021/08/28 10:15:46;;;;;;;0.40;0.40;;;;;;;25.39;42.70;98991.56;5080888;27;41633;-83
2021/08/28 10:18:24;;;;;;;0.30;0.30;;;;;;;24.42;43.05;98920.19;5071629;27;40508;-82
2021/08/28 10:20:53;;;;;;;0.30;0.30;;;;;;;23.89;44.26;98921.91;5072692;27;40748;-82
2021/08/28 10:23:27;;;;;;;0.30;0.30;;;;;;;23.52;46.77;98936.16;5082556;27;41669;-82
2021/08/28 10:25:56;;;;;;;0.40;0.40;;;;;;;23.11;48.02;98951.66;5070918;27;41383;-83
2021/08/28 10:28:24;;;;;;;0.20;0.20;;;;;;;22.46;48.17;98908.53;5092031;27;41025;-83
2021/08/28 10:30:54;;;;;;;0.43;0.43;;;;;;;22.44;48.46;98950.19;5095766;28;42294;-81
2021/08/28 10:33:22;;;;;;;0.30;0.30;;;;;;;22.19;49.07;98928.59;5099653;27;42312;-82
2021/08/28 10:35:50;;;;;;;0.30;0.30;;;;;;;22.27;49.18;98960.13;5095880;27;43029;-81
2021/08/28 10:38:20;;;;;;;0.73;0.73;;;;;;;22.18;48.71;98956.59;5119697;27;40132;-82
2021/08/28 10:40:54;;;;;;;0.30;0.30;;;;;;;22.09;48.43;98968.38;5099050;27;40988;-82
2021/08/28 10:43:26;;;;;;;0.50;0.50;;;;;;;21.88;50.19;98961.75;5084083;27;41917;-80
2021/08/28 10:45:58;;;;;;;0.57;0.57;;;;;;;20.97;55.10;98886.94;5069750;28;41176;-81
2021/08/28 10:48:51;;;;;;;0.40;0.40;;;;;;;20.58;58.73;98918.00;5054500;28;38921;-80
2021/08/28 10:51:23;;;;;;;0.40;0.40;;;;;;;20.09;60.03;98914.88;5073598;27;41792;-81
2021/08/28 10:53:54;;;;;;;0.60;0.60;;;;;;;19.91;60.80;98927.47;5093100;27;44045;-80
2021/08/28 10:56:36;;;;;;;0.30;0.30;;;;;;;19.76;63.05;98904.81;5090771;28;41673;-82
2021/08/28 10:59:17;;;;;;;0.60;0.60;;;;;;;19.81;62.17;98929.38;5074122;27;38921;-83
2021/08/28 11:02:01;;;;;;;0.30;0.30;;;;;;;19.83;62.81;98912.13;5074377;27;41486;-82
2021/08/28 11:04:37;;;;;;;0.73;0.60;;;;;;;20.09;62.51;98939.06;5113357;27;43914;-82
2021/08/28 11:07:27;;;;;;;0.50;0.50;;;;;;;20.90;62.87;98928.94;5089287;27;42004;-82
2021/08/28 11:10:07;;;;;;;0.30;0.30;;;;;;;23.26;58.88;98925.56;5076303;28;38816;-83
2021/08/28 11:12:48;;;;;;;0.43;0.30;;;;;;;25.51;54.00;98953.97;5072427;28;41071;-82
2021/08/28 11:15:39;;;;;;;0.40;0.40;;;;;;;26.58;49.34;98976.75;5095380;27;43704;-83
2021/08/28 11:18:09;;;;;;;0.40;0.40;;;;;;;27.56;47.19;98976.66;5106270;27;43143;-81
2021/08/28 11:20:40;;;;;;;0.40;0.40;;;;;;;28.63;45.11;98976.78;5072870;28;38872;-82
2021/08/28 11:23:11;;;;;;;0.50;0.50;;;;;;;29.64;44.44;98959.06;5089290;28;42592;-82
2021/08/28 11:52:09;;;;;;;0.30;0.30;;;;;;;30.49;36.87;98988.91;5063925;28;41906;-84
2021/08/28 11:54:46;;;;;;;0.30;0.30;;;;;;;29.45;37.80;98954.50;5060771;28;43291;-83
2021/08/28 11:57:14;;;;;;;0.40;0.40;;;;;;;28.89;39.58;98948.72;5080459;28;41288;-83
2021/08/28 11:59:45;;;;;;;0.40;0.40;;;;;;;28.47;41.66;98931.69;5081526;28;40434;-84
2021/08/28 12:02:13;;;;;;;0.37;0.30;;;;;;;28.29;40.00;98971.50;5057331;28;40811;-83
2021/08/28 12:04:40;;;;;;;0.30;0.30;;;;;;;30.31;39.72;98933.09;5052966;28;41958;-84
2021/08/28 12:07:10;;;;;;;0.37;0.37;;;;;;;32.24;34.60;98969.28;5055241;28;42268;-85
2021/08/28 12:09:37;;;;;;;0.50;0.50;;;;;;;33.07;34.01;98954.69;5065087;28;40413;-84
2021/08/28 12:12:05;;;;;;;0.60;0.60;;;;;;;34.21;31.62;99019.03;5067110;28;41619;-84
2021/08/28 12:14:34;;;;;;;0.50;0.50;;;;;;;34.41;28.98;99018.63;5062115;28;43066;-85
2021/08/28 12:17:03;;;;;;;0.50;0.50;;;;;;;35.12;28.51;99028.97;5063072;28;41203;-83
2021/08/28 12:19:36;;;;;;;0.40;0.40;;;;;;;36.22;26.58;99050.22;5057233;28;39121;-85
2021/08/28 12:22:08;;;;;;;0.47;0.47;;;;;;;37.44;26.46;99034.03;5068823;28;40606;-84
2021/08/28 12:24:39;;;;;;;0.60;0.50;;;;;;;38.46;24.16;99058.34;5087224;28;43241;-85
2021/08/28 12:27:09;;;;;;;0.47;0.47;;;;;;;39.24;22.62;99044.38;5095479;28;42238;-84
2021/08/28 12:29:39;;;;;;;0.30;0.30;;;;;;;38.69;25.57;99034.94;5091464;28;39502;-82
2021/08/28 12:32:09;;;;;;;0.40;0.40;;;;;;;37.53;25.02;99026.91;5053235;28;40922;-84
2021/08/28 12:34:38;;;;;;;0.50;0.50;;;;;;;36.94;26.73;98996.63;5074948;28;43916;-83
2021/08/28 12:37:07;;;;;;;0.50;0.50;;;;;;;37.30;26.57;99009.63;5074097;28;42474;-82